Time;durP1;ratioP1;P1;durP2;ratioP2;P2;SDS_P1;SDS_P2;PMS_P1;PMS_P2;Temp;Humidity;BMP_temperature;BMP_pressure;BME280_temperature;BME280_humidity;BME280_pressure;Samples;Min_cycle;Max_cycle;Signal;HPM_P1;HPM_P2
2023/09/11 00:01:00;;;;;;;;;15.75;12.00;;;;;-146.67;100.00;57155.34;5140508;27;10018;-82
2023/09/11 00:03:26;;;;;;;;;18.25;16.25;;;;;-146.67;100.00;57155.34;5124366;28;8879;-82
2023/09/11 00:05:51;;;;;;;;;21.00;18.25;;;;;-146.67;100.00;57155.34;5124804;28;8812;-82
2023/09/11 00:08:16;;;;;;;;;16.50;15.75;;;;;-146.67;100.00;57155.34;5140676;27;8812;-83
2023/09/11 00:10:42;;;;;;;;;20.00;17.00;;;;;-146.67;100.00;57155.34;5124114;28;8827;-83
2023/09/11 00:13:07;;;;;;;;;20.25;19.25;;;;;-146.67;100.00;57155.34;5124760;28;8785;-83
2023/09/11 00:15:34;;;;;;;;;21.50;20.25;;;;;-146.67;100.00;57155.34;5123199;28;8899;-83
2023/09/11 00:18:00;;;;;;;;;22.00;19.75;;;;;-146.67;100.00;57155.34;5124207;28;8860;-83
2023/09/11 00:20:25;;;;;;;;;17.50;16.50;;;;;-146.67;100.00;57155.34;5124557;28;9849;-83
2023/09/11 00:22:51;;;;;;;;;23.33;18.33;;;;;-146.67;100.00;57155.34;5124369;28;9015;-82
2023/09/11 00:25:16;;;;;;;;;20.75;18.00;;;;;-146.67;100.00;57155.34;5123598;28;9603;-82
2023/09/11 00:27:42;;;;;;;;;17.75;17.75;;;;;-146.67;100.00;57155.34;5140191;27;8949;-83
2023/09/11 00:30:07;;;;;;;;;20.50;20.25;;;;;-146.67;100.00;57155.34;5120113;28;9969;-82
2023/09/11 00:32:33;;;;;;;;;20.25;20.00;;;;;-146.67;100.00;57155.34;5123929;28;8804;-83
2023/09/11 00:34:58;;;;;;;;;20.00;20.00;;;;;-146.67;100.00;57155.34;5115344;28;8795;-83
2023/09/11 00:37:23;;;;;;;;;21.25;20.25;;;;;-146.67;100.00;57155.34;5104071;28;8798;-83
2023/09/11 00:39:49;;;;;;;;;19.50;18.50;;;;;-146.67;100.00;57155.34;5085186;28;9982;-83
2023/09/11 00:42:14;;;;;;;;;18.50;17.25;;;;;-146.67;100.00;57155.34;5103545;28;8802;-82
2023/09/11 00:44:39;;;;;;;;;14.00;13.75;;;;;-146.67;100.00;57155.34;5085398;28;8807;-83
2023/09/11 00:47:05;;;;;;;;;19.50;19.00;;;;;-146.67;100.00;57155.34;5103327;28;8902;-83
2023/09/11 00:49:32;;;;;;;;;21.25;18.75;;;;;-146.67;100.00;57155.34;5103836;28;8806;-83
2023/09/11 00:51:57;;;;;;;;;17.50;16.25;;;;;-146.67;100.00;57155.34;5119330;28;8773;-82
2023/09/11 00:54:23;;;;;;;;;16.50;16.50;;;;;-146.67;100.00;57155.34;5142204;27;9820;-83
2023/09/11 00:56:49;;;;;;;;;19.50;18.50;;;;;-146.67;100.00;57155.34;5125929;27;8742;-82
2023/09/11 00:59:17;;;;;;;;;15.00;14.00;;;;;-146.67;100.00;57155.34;5144697;27;10773;-83
2023/09/11 01:01:43;;;;;;;;;16.50;16.50;;;;;-146.67;100.00;57155.34;5129094;27;9236;-81
2023/09/11 01:04:09;;;;;;;;;22.25;18.00;;;;;-146.67;100.00;57155.34;5123835;28;9719;-83
2023/09/11 01:06:35;;;;;;;;;19.00;17.75;;;;;-146.67;100.00;57155.34;5123773;28;9714;-83
2023/09/11 01:09:01;;;;;;;;;16.00;16.00;;;;;-146.67;100.00;57155.34;5122942;28;8789;-83
2023/09/11 01:11:27;;;;;;;;;22.75;20.00;;;;;-146.67;100.00;57155.34;5123453;28;8915;-83
2023/09/11 01:13:53;;;;;;;;;21.50;19.75;;;;;-146.67;100.00;57155.34;5122679;28;9804;-83
2023/09/11 01:16:21;;;;;;;;;20.50;18.50;;;;;-146.67;100.00;57155.34;5122318;28;8722;-82
2023/09/11 01:18:51;;;;;;;;;21.75;18.50;;;;;-146.67;100.00;57155.34;5139702;27;10053;-83
2023/09/11 01:21:46;;;;;;;;;19.50;18.50;;;;;-146.67;100.00;57155.34;5123718;28;9805;-83
2023/09/11 01:24:47;;;;;;;;;22.25;19.00;;;;;-146.67;100.00;57155.34;5122484;28;9863;-83
2023/09/11 01:27:19;;;;;;;;;25.50;20.00;;;;;-146.67;100.00;57155.34;5119499;28;9873;-83
2023/09/11 01:29:44;;;;;;;;;22.00;18.00;;;;;-146.67;100.00;57155.34;5138822;27;10145;-82
2023/09/11 01:32:11;;;;;;;;;22.50;20.25;;;;;-146.67;100.00;57155.34;5123084;28;9823;-83
2023/09/11 01:34:37;;;;;;;;;22.25;18.25;;;;;-146.67;100.00;57155.34;5123647;28;8803;-83
2023/09/11 01:37:03;;;;;;;;;18.75;17.00;;;;;-146.67;100.00;57155.34;5123459;28;10409;-83
2023/09/11 01:39:28;;;;;;;;;24.00;23.00;;;;;-146.67;100.00;57155.34;5123571;28;8793;-83
2023/09/11 01:42:00;;;;;;;;;26.50;25.50;;;;;-146.67;100.00;57155.34;5122920;28;8844;-82
2023/09/11 01:44:43;;;;;;;;;22.00;18.75;;;;;-146.67;100.00;57155.34;5118920;28;8793;-83
2023/09/11 01:47:12;;;;;;;;;25.00;20.50;;;;;-146.67;100.00;57155.34;5102617;28;9908;-82
2023/09/11 01:49:38;;;;;;;;;23.00;21.50;;;;;-146.67;100.00;57155.34;5102837;28;9990;-83
2023/09/11 01:52:07;;;;;;;;;20.00;17.50;;;;;-146.67;100.00;57155.34;5102840;28;9758;-82
2023/09/11 01:54:33;;;;;;;;;20.00;19.00;;;;;-146.67;100.00;57155.34;5107112;28;9854;-83
2023/09/11 01:56:59;;;;;;;;;19.25;18.25;;;;;-146.67;100.00;57155.34;5122841;28;9846;-83
2023/09/11 01:59:24;;;;;;;;;24.75;19.50;;;;;-146.67;100.00;57155.34;5122697;28;9880;-83
2023/09/11 02:01:50;;;;;;;;;23.75;23.50;;;;;-146.67;100.00;57155.34;5123002;28;8785;-83
2023/09/11 02:04:15;;;;;;;;;22.00;20.00;;;;;-146.67;100.00;57155.34;5122878;28;8881;-83
2023/09/11 02:06:40;;;;;;;;;21.25;17.25;;;;;-146.67;100.00;57155.34;5122991;28;8865;-82
2023/09/11 02:09:06;;;;;;;;;21.50;19.00;;;;;-146.67;100.00;57155.34;5123055;28;8870;-83
2023/09/11 02:11:31;;;;;;;;;19.25;18.00;;;;;-146.67;100.00;57155.34;5122571;28;8777;-83
2023/09/11 02:13:57;;;;;;;;;14.00;13.50;;;;;-146.67;100.00;57155.34;5122590;28;9015;-83
2023/09/11 02:16:22;;;;;;;;;16.00;13.50;;;;;-146.67;100.00;57155.34;5122836;28;8939;-83
2023/09/11 02:18:47;;;;;;;;;13.50;13.00;;;;;-146.67;100.00;57155.34;5115835;28;8817;-83
2023/09/11 02:21:13;;;;;;;;;13.50;13.25;;;;;-146.67;100.00;57155.34;5102494;28;8797;-83
2023/09/11 02:23:38;;;;;;;;;16.00;12.33;;;;;-146.67;100.00;57155.34;5101681;28;8872;-83
2023/09/11 02:26:03;;;;;;;;;14.00;13.00;;;;;-146.67;100.00;57155.34;5111697;28;8811;-83
2023/09/11 02:28:29;;;;;;;;;12.67;12.67;;;;;-146.67;100.00;57155.34;5122239;28;8925;-83
2023/09/11 02:30:55;;;;;;;;;14.33;12.33;;;;;-146.67;100.00;57155.34;5122672;28;8870;-83
2023/09/11 02:33:20;;;;;;;;;13.00;12.00;;;;;-146.67;100.00;57155.34;5110688;28;8779;-83
2023/09/11 02:35:52;;;;;;;;;12.33;12.00;;;;;-146.67;100.00;57155.34;5102148;28;8802;-83
2023/09/11 02:38:17;;;;;;;;;17.25;16.50;;;;;-146.67;100.00;57155.34;5102166;28;8852;-83
2023/09/11 02:40:43;;;;;;;;;15.00;14.50;;;;;-146.67;100.00;57155.34;5121368;28;9734;-83
2023/09/11 02:43:08;;;;;;;;;13.33;13.00;;;;;-146.67;100.00;57155.34;5137968;27;9543;-83
2023/09/11 02:45:33;;;;;;;;;19.00;15.00;;;;;-146.67;100.00;57155.34;5138058;27;8812;-83
2023/09/11 02:47:58;;;;;;;;;14.25;13.50;;;;;-146.67;100.00;57155.34;5122504;28;8832;-83
2023/09/11 02:50:24;;;;;;;;;18.25;15.75;;;;;-146.67;100.00;57155.34;5104187;28;8812;-83
2023/09/11 02:52:49;;;;;;;;;19.50;15.75;;;;;-146.67;100.00;57155.34;5121999;28;8887;-83
2023/09/11 02:55:15;;;;;;;;;15.00;14.67;;;;;-146.67;100.00;57155.34;5121941;28;8902;-83
2023/09/11 02:57:41;;;;;;;;;18.33;16.33;;;;;-146.67;100.00;57155.34;5121562;28;8827;-83
2023/09/11 03:00:08;;;;;;;;;18.00;17.00;;;;;-146.67;100.00;57155.34;5122578;28;8807;-83
2023/09/11 03:02:34;;;;;;;;;11.33;11.33;;;;;-146.67;100.00;57155.34;5122157;28;9498;-83
2023/09/11 03:04:59;;;;;;;;;17.00;12.75;;;;;-146.67;100.00;57155.34;5122330;28;9511;-83
2023/09/11 03:07:24;;;;;;;;;13.67;13.67;;;;;-146.67;100.00;57155.34;5122226;28;8820;-83
2023/09/11 03:09:50;;;;;;;;;10.67;10.33;;;;;-146.67;100.00;57155.34;5122035;28;8788;-83
2023/09/11 03:12:15;;;;;;;;;15.75;12.75;;;;;-146.67;100.00;57155.34;5121375;28;8800;-83
2023/09/11 03:14:40;;;;;;;;;17.50;15.00;;;;;-146.67;100.00;57155.34;5123596;28;8780;-83
2023/09/11 03:17:06;;;;;;;;;12.75;12.00;;;;;-146.67;100.00;57155.34;5125362;28;9016;-83
2023/09/11 03:19:36;;;;;;;;;16.00;15.00;;;;;-146.67;100.00;57155.34;5125838;28;8784;-83
2023/09/11 03:22:01;;;;;;;;;16.50;14.00;;;;;-146.67;100.00;57155.34;5106904;28;12459;-82
2023/09/11 03:24:27;;;;;;;;;19.75;16.50;;;;;-146.67;100.00;57155.34;5124974;28;9790;-83
2023/09/11 03:26:52;;;;;;;;;17.75;17.50;;;;;-146.67;100.00;57155.34;5124347;28;8819;-83
2023/09/11 03:29:17;;;;;;;;;14.00;13.33;;;;;-146.67;100.00;57155.34;5125507;28;8785;-83
2023/09/11 03:31:43;;;;;;;;;18.00;12.00;;;;;-146.67;100.00;57155.34;5124944;28;8909;-83
2023/09/11 03:34:09;;;;;;;;;16.50;13.75;;;;;-146.67;100.00;57155.34;5123964;28;8857;-83
2023/09/11 03:36:35;;;;;;;;;17.50;15.75;;;;;-146.67;100.00;57155.34;5104750;28;8727;-82
2023/09/11 03:39:00;;;;;;;;;12.50;11.75;;;;;-146.67;100.00;57155.34;5086326;28;9590;-83
2023/09/11 03:41:25;;;;;;;;;16.00;13.00;;;;;-146.67;100.00;57155.34;5104334;28;8810;-83
2023/09/11 03:43:51;;;;;;;;;14.25;13.25;;;;;-146.67;100.00;57155.34;5104417;28;8899;-83
2023/09/11 03:46:17;;;;;;;;;17.75;16.00;;;;;-146.67;100.00;57155.34;5109225;28;8790;-82
2023/09/11 03:48:43;;;;;;;;;16.00;13.00;;;;;-146.67;100.00;57155.34;5113726;28;8761;-82
2023/09/11 03:51:08;;;;;;;;;20.75;15.75;;;;;-146.67;100.00;57155.34;5126684;28;9576;-83
2023/09/11 03:53:34;;;;;;;;;14.00;14.00;;;;;-146.67;100.00;57155.34;5124551;28;8852;-83
2023/09/11 03:56:00;;;;;;;;;16.50;13.00;;;;;-146.67;100.00;57155.34;5124128;28;9196;-83
2023/09/11 03:58:26;;;;;;;;;14.67;12.33;;;;;-146.67;100.00;57155.34;5125127;28;8812;-83
2023/09/11 04:00:51;;;;;;;;;13.75;12.00;;;;;-146.67;100.00;57155.34;5125186;28;9552;-83
2023/09/11 04:03:16;;;;;;;;;18.00;14.50;;;;;-146.67;100.00;57155.34;5106264;28;8864;-83
2023/09/11 04:05:42;;;;;;;;;18.00;14.00;;;;;-146.67;100.00;57155.34;5125004;28;8792;-83
2023/09/11 04:08:08;;;;;;;;;20.75;15.50;;;;;-146.67;100.00;57155.34;5105970;28;8889;-83
2023/09/11 04:10:33;;;;;;;;;18.00;17.00;;;;;-146.67;100.00;57155.34;5124320;28;8842;-82
2023/09/11 04:12:59;;;;;;;;;16.75;15.75;;;;;-146.67;100.00;57155.34;5124196;28;9746;-82
2023/09/11 04:15:24;;;;;;;;;21.50;16.50;;;;;-146.67;100.00;57155.34;5124673;28;8888;-83
2023/09/11 04:17:49;;;;;;;;;23.25;16.25;;;;;-146.67;100.00;57155.34;5124538;28;8967;-83
2023/09/11 04:20:15;;;;;;;;;16.50;16.25;;;;;-146.67;100.00;57155.34;5123916;28;8887;-83
2023/09/11 04:22:40;;;;;;;;;22.00;20.50;;;;;-146.67;100.00;57155.34;5124388;28;8849;-82
2023/09/11 04:25:06;;;;;;;;;18.25;17.00;;;;;-146.67;100.00;57155.34;5138191;27;9989;-82
2023/09/11 04:27:31;;;;;;;;;21.75;17.50;;;;;-146.67;100.00;57155.34;5123740;28;8844;-84
2023/09/11 04:29:57;;;;;;;;;20.25;19.50;;;;;-146.67;100.00;57155.34;5124294;28;8812;-81
2023/09/11 04:32:22;;;;;;;;;20.00;19.25;;;;;-146.67;100.00;57155.34;5123561;28;8905;-82
2023/09/11 04:34:48;;;;;;;;;19.50;19.00;;;;;-146.67;100.00;57155.34;5122739;28;10005;-81
2023/09/11 04:37:13;;;;;;;;;22.25;18.00;;;;;-146.67;100.00;57155.34;5123789;28;9539;-80
2023/09/11 04:39:40;;;;;;;;;21.00;20.50;;;;;-146.67;100.00;57155.34;5123680;28;8793;-79
2023/09/11 04:42:05;;;;;;;;;24.25;21.50;;;;;-146.67;100.00;57155.34;5123620;28;8879;-79
2023/09/11 04:44:31;;;;;;;;;23.00;18.25;;;;;-146.67;100.00;57155.34;5122004;28;10035;-81
2023/09/11 04:46:58;;;;;;;;;22.25;17.00;;;;;-146.67;100.00;57155.34;5101475;28;8825;-78
2023/09/11 04:49:25;;;;;;;;;22.25;21.00;;;;;-146.67;100.00;57155.34;5123803;28;8717;-79
2023/09/11 04:51:52;;;;;;;;;25.00;18.50;;;;;-146.67;100.00;57155.34;5108117;28;9863;-79
2023/09/11 04:54:17;;;;;;;;;24.25;20.75;;;;;-146.67;100.00;57155.34;5102183;28;10129;-79
2023/09/11 04:56:42;;;;;;;;;21.25;19.00;;;;;-146.67;100.00;57155.34;5084437;28;9884;-80
2023/09/11 04:59:09;;;;;;;;;22.00;18.50;;;;;-146.67;100.00;57155.34;5101142;28;9015;-80
2023/09/11 05:01:35;;;;;;;;;21.75;16.50;;;;;-146.67;100.00;57155.34;5123412;28;8776;-80
2023/09/11 05:04:03;;;;;;;;;17.25;16.25;;;;;-146.67;100.00;57155.34;5123398;28;10639;-80
2023/09/11 05:06:28;;;;;;;;;22.25;20.75;;;;;-146.67;100.00;57155.34;5104525;28;8769;-80
2023/09/11 05:08:55;;;;;;;;;23.75;21.00;;;;;-146.67;100.00;57155.34;5122007;28;9843;-81
2023/09/11 05:11:20;;;;;;;;;21.50;18.50;;;;;-146.67;100.00;57155.34;5122218;28;8739;-80
2023/09/11 05:13:46;;;;;;;;;22.75;20.50;;;;;-146.67;100.00;57155.34;5103038;28;10045;-80
2023/09/11 05:16:12;;;;;;;;;16.25;16.25;;;;;-146.67;100.00;57155.34;5122705;28;8827;-80
2023/09/11 05:18:37;;;;;;;;;26.50;20.75;;;;;-146.67;100.00;57155.34;5126428;28;8808;-81
2023/09/11 05:21:03;;;;;;;;;23.00;20.50;;;;;-146.67;100.00;57155.34;5123192;28;8875;-81
2023/09/11 05:23:28;;;;;;;;;19.50;19.00;;;;;-146.67;100.00;57155.34;5120685;28;9889;-81
2023/09/11 05:25:53;;;;;;;;;26.50;22.50;;;;;-146.67;100.00;57155.34;5099882;28;8830;-81
2023/09/11 05:28:19;;;;;;;;;20.25;18.75;;;;;-146.67;100.00;57155.34;5102646;28;9584;-81
2023/09/11 05:30:44;;;;;;;;;21.25;17.75;;;;;-146.67;100.00;57155.34;5102047;28;8810;-81
2023/09/11 05:33:09;;;;;;;;;20.00;17.25;;;;;-146.67;100.00;57155.34;5101894;28;8818;-81
2023/09/11 05:35:35;;;;;;;;;19.25;17.50;;;;;-146.67;100.00;57155.34;5084301;28;8803;-82
2023/09/11 05:38:00;;;;;;;;;21.75;20.00;;;;;-146.67;100.00;57155.34;5100687;28;8807;-81
2023/09/11 05:40:26;;;;;;;;;24.00;21.25;;;;;-146.67;100.00;57155.34;5109612;28;8808;-82
2023/09/11 05:42:51;;;;;;;;;21.50;18.00;;;;;-146.67;100.00;57155.34;5102274;28;8793;-82
2023/09/11 05:45:16;;;;;;;;;21.50;18.25;;;;;-146.67;100.00;57155.34;5080474;28;8842;-83
2023/09/11 05:47:42;;;;;;;;;15.75;15.75;;;;;-146.67;100.00;57155.34;5098895;28;8812;-82
2023/09/11 05:50:08;;;;;;;;;23.75;22.25;;;;;-146.67;100.00;57155.34;5082468;28;9605;-79
2023/09/11 05:52:34;;;;;;;;;20.50;18.50;;;;;-146.67;100.00;57155.34;5099819;28;9603;-81
2023/09/11 05:54:59;;;;;;;;;20.00;18.25;;;;;-146.67;100.00;57155.34;5101216;28;8723;-81
2023/09/11 05:57:24;;;;;;;;;21.50;17.25;;;;;-146.67;100.00;57155.34;5083758;28;9997;-80
2023/09/11 05:59:50;;;;;;;;;18.50;18.50;;;;;-146.67;100.00;57155.34;5102238;28;8902;-81
2023/09/11 06:02:15;;;;;;;;;25.50;19.25;;;;;-146.67;100.00;57155.34;5101761;28;8857;-80
2023/09/11 06:04:41;;;;;;;;;20.75;19.00;;;;;-146.67;100.00;57155.34;5101871;28;8794;-81
2023/09/11 06:07:06;;;;;;;;;22.50;20.50;;;;;-146.67;100.00;57155.34;5101483;28;8845;-81
2023/09/11 06:09:31;;;;;;;;;24.75;20.25;;;;;-146.67;100.00;57155.34;5100805;28;8897;-85
2023/09/11 06:11:57;;;;;;;;;25.00;21.00;;;;;-146.67;100.00;57155.34;5086628;28;8904;-84
2023/09/11 06:14:23;;;;;;;;;20.25;14.25;;;;;-146.67;100.00;57155.34;5101177;28;8807;-84
2023/09/11 06:16:48;;;;;;;;;25.25;19.00;;;;;-146.67;100.00;57155.34;5098609;28;8821;-84
2023/09/11 06:19:13;;;;;;;;;25.75;19.25;;;;;-146.67;100.00;57155.34;5101687;28;8837;-84
2023/09/11 06:21:39;;;;;;;;;25.25;19.50;;;;;-146.67;100.00;57155.34;5102382;28;8803;-84
2023/09/11 06:24:06;;;;;;;;;25.25;23.50;;;;;-146.67;100.00;57155.34;5101120;28;8806;-85
2023/09/11 06:26:32;;;;;;;;;26.00;20.50;;;;;-146.67;100.00;57155.34;5119480;27;8828;-86
2023/09/11 06:28:57;;;;;;;;;20.75;20.75;;;;;-146.67;100.00;57155.34;5128686;27;10199;-83
2023/09/11 06:31:23;;;;;;;;;27.75;22.00;;;;;-146.67;100.00;57155.34;5129607;27;8805;-82
2023/09/11 06:33:49;;;;;;;;;19.75;17.50;;;;;-146.67;100.00;57155.34;5128764;27;8715;-81
2023/09/11 06:36:14;;;;;;;;;25.00;22.25;;;;;-146.67;100.00;57155.34;5110192;27;10202;-82
2023/09/11 06:38:40;;;;;;;;;23.00;19.25;;;;;-146.67;100.00;57155.34;5122308;28;8808;-81
2023/09/11 06:41:05;;;;;;;;;20.00;20.00;;;;;-146.67;100.00;57155.34;5112018;27;10314;-82
2023/09/11 06:43:31;;;;;;;;;18.75;18.75;;;;;-146.67;100.00;57155.34;5105268;28;8792;-81
2023/09/11 06:45:57;;;;;;;;;18.50;17.75;;;;;-146.67;100.00;57155.34;5127979;27;8847;-81
2023/09/11 06:48:22;;;;;;;;;31.00;25.50;;;;;-146.67;100.00;57155.34;5138943;27;8834;-81
2023/09/11 06:50:47;;;;;;;;;19.00;18.50;;;;;-146.67;100.00;57155.34;5111061;27;11178;-81
2023/09/11 06:53:13;;;;;;;;;22.50;20.50;;;;;-146.67;100.00;57155.34;5124061;28;8874;-81
2023/09/11 06:55:48;;;;;;;;;24.50;20.75;;;;;-146.67;100.00;57155.34;5124566;28;8868;-81
2023/09/11 06:58:13;;;;;;;;;23.50;22.00;;;;;-146.67;100.00;57155.34;5136007;27;8746;-81
2023/09/11 07:00:40;;;;;;;;;20.50;18.00;;;;;-146.67;100.00;57155.34;5126823;27;10373;-82
2023/09/11 07:03:06;;;;;;;;;28.50;23.75;;;;;-146.67;100.00;57155.34;5145540;27;8774;-81
2023/09/11 07:05:31;;;;;;;;;23.75;20.75;;;;;-146.67;100.00;57155.34;5122915;28;10334;-90
2023/09/11 07:07:56;;;;;;;;;34.00;21.50;;;;;-146.67;100.00;57155.34;5124173;28;8959;-92
2023/09/11 07:10:23;;;;;;;;;24.25;21.25;;;;;-146.67;100.00;57155.34;5112908;28;9978;-88
2023/09/11 07:12:49;;;;;;;;;21.50;19.00;;;;;-146.67;100.00;57155.34;5124751;27;8725;-92
2023/09/11 07:15:17;;;;;;;;;24.75;21.00;;;;;-146.67;100.00;57155.34;5123993;28;10997;-92
2023/09/11 07:17:44;;;;;;;;;21.50;19.50;;;;;-146.67;100.00;57155.34;5124034;28;9868;-91
2023/09/11 07:20:10;;;;;;;;;23.50;22.50;;;;;-146.67;100.00;57155.34;5106884;28;10093;-92
2023/09/11 07:22:36;;;;;;;;;23.75;18.25;;;;;-146.67;100.00;57155.34;5106869;28;9982;-91
2023/09/11 07:25:02;;;;;;;;;20.75;17.00;;;;;-146.67;100.00;57155.34;5124397;28;8843;-91
2023/09/11 07:27:33;;;;;;;;;18.00;16.00;;;;;-146.67;100.00;57155.34;5125126;28;8777;-92
2023/09/11 07:29:59;;;;;;;;;17.75;16.00;;;;;-146.67;100.00;57155.34;5106583;28;10529;-91
2023/09/11 07:32:25;;;;;;;;;21.50;19.50;;;;;-146.67;100.00;57155.34;5124765;28;9706;-91
2023/09/11 07:34:51;;;;;;;;;17.75;16.75;;;;;-146.67;100.00;57155.34;5125449;28;9697;-91
2023/09/11 07:37:16;;;;;;;;;18.00;17.00;;;;;-146.67;100.00;57155.34;5106750;28;9800;-92
2023/09/11 07:39:41;;;;;;;;;25.67;19.00;;;;;-146.67;100.00;57155.34;5125281;28;8807;-92
2023/09/11 07:42:07;;;;;;;;;23.00;21.25;;;;;-146.67;100.00;57155.34;5124641;28;8807;-92
2023/09/11 07:44:32;;;;;;;;;22.50;21.25;;;;;-146.67;100.00;57155.34;5125613;28;8920;-91
2023/09/11 07:46:58;;;;;;;;;19.25;18.75;;;;;-146.67;100.00;57155.34;5124452;28;8800;-92
2023/09/11 07:49:23;;;;;;;;;23.75;19.25;;;;;-146.67;100.00;57155.34;5106732;28;9956;-92
2023/09/11 07:51:49;;;;;;;;;18.75;17.75;;;;;-146.67;100.00;57155.34;5125036;28;8803;-93
2023/09/11 07:54:14;;;;;;;;;19.25;17.00;;;;;-146.67;100.00;57155.34;5124823;28;8886;-93
2023/09/11 07:56:39;;;;;;;;;22.00;19.50;;;;;-146.67;100.00;57155.34;5124300;28;8800;-92
2023/09/11 07:59:05;;;;;;;;;22.25;18.25;;;;;-146.67;100.00;57155.34;5123947;28;8801;-92
2023/09/11 08:01:30;;;;;;;;;18.25;15.50;;;;;-146.67;100.00;57155.34;5124077;28;8850;-92
2023/09/11 08:03:56;;;;;;;;;21.25;16.00;;;;;-146.67;100.00;57155.34;5124775;28;8812;-92
2023/09/11 08:06:22;;;;;;;;;22.00;16.00;;;;;-146.67;100.00;57155.34;5106230;28;8876;-91
2023/09/11 08:08:48;;;;;;;;;13.67;13.67;;;;;-146.67;100.00;57155.34;5124834;28;8741;-92
2023/09/11 08:11:16;;;;;;;;;15.00;13.67;;;;;-146.67;100.00;57155.34;5124060;28;9454;-92
2023/09/11 08:13:41;;;;;;;;;16.00;14.00;;;;;-146.67;100.00;57155.34;5124846;28;8721;-93
2023/09/11 08:16:07;;;;;;;;;18.67;14.67;;;;;-146.67;100.00;57155.34;5124288;28;9394;-92
2023/09/11 08:18:32;;;;;;;;;20.50;18.25;;;;;-146.67;100.00;57155.34;5124377;28;11655;-92
2023/09/11 08:20:58;;;;;;;;;20.00;17.75;;;;;-146.67;100.00;57155.34;5124682;28;8882;-92
2023/09/11 08:23:23;;;;;;;;;13.00;11.67;;;;;-146.67;100.00;57155.34;5124332;28;8789;-92
2023/09/11 08:25:48;;;;;;;;;14.33;13.67;;;;;-146.67;100.00;57155.34;5123380;28;8927;-92
2023/09/11 08:28:14;;;;;;;;;16.67;15.00;;;;;-146.67;100.00;57155.34;5124184;28;9548;-92
2023/09/11 08:30:39;;;;;;;;;15.33;11.00;;;;;-146.67;100.00;57155.34;5129468;27;8825;-92
2023/09/11 08:33:04;;;;;;;;;11.33;11.33;;;;;-146.67;100.00;57155.34;5124321;28;8788;-92
2023/09/11 08:35:31;;;;;;;;;15.00;13.67;;;;;-146.67;100.00;57155.34;5124359;28;8784;-92
2023/09/11 08:37:56;;;;;;;;;10.33;9.33;;;;;-146.67;100.00;57155.34;5124313;28;8848;-91
2023/09/11 08:40:29;;;;;;;;;10.00;10.00;;;;;-146.67;100.00;57155.34;5123868;28;9428;-92
2023/09/11 08:42:55;;;;;;;;;9.67;9.00;;;;;-146.67;100.00;57155.34;5123938;28;9730;-91
2023/09/11 08:45:20;;;;;;;;;10.33;9.33;;;;;-146.67;100.00;57155.34;5105089;28;9315;-93
2023/09/11 08:47:48;;;;;;;;;13.67;12.33;;;;;-146.67;100.00;57155.34;5105308;28;10993;-92
2023/09/11 08:50:16;;;;;;;;;12.00;11.33;;;;;-146.67;100.00;57155.34;5105578;28;8882;-92
2023/09/11 08:52:42;;;;;;;;;10.67;10.00;;;;;-146.67;100.00;57155.34;5124034;28;9178;-91
2023/09/11 08:55:09;;;;;;;;;9.00;6.33;;;;;-146.67;100.00;57155.34;5123473;28;9315;-92
2023/09/11 08:57:38;;;;;;;;;18.67;13.00;;;;;-146.67;100.00;57155.34;5123532;28;8816;-92
2023/09/11 09:00:08;;;;;;;;;9.67;9.67;;;;;-146.67;100.00;57155.34;5105290;28;9612;-92
2023/09/11 09:02:35;;;;;;;;;10.33;9.00;;;;;-146.67;100.00;57155.34;5123381;28;9195;-92
2023/09/11 09:05:05;;;;;;;;;13.00;11.00;;;;;-146.67;100.00;57155.34;5124010;28;9311;-92
2023/09/11 09:07:34;;;;;;;;;10.33;10.33;;;;;-146.67;100.00;57155.34;5105161;28;9462;-92
2023/09/11 09:10:02;;;;;;;;;10.67;9.67;;;;;-146.67;100.00;57155.34;5123960;28;10011;-92
2023/09/11 09:12:28;;;;;;;;;9.33;6.67;;;;;-146.67;100.00;57155.34;5122639;28;9113;-91
2023/09/11 09:14:53;;;;;;;;;9.00;8.67;;;;;-146.67;100.00;57155.34;5104934;28;9154;-92
2023/09/11 09:17:19;;;;;;;;;10.00;9.00;;;;;-146.67;100.00;57155.34;5105451;28;9878;-92
2023/09/11 09:19:44;;;;;;;;;11.67;8.00;;;;;-146.67;100.00;57155.34;5123393;28;8802;-92
2023/09/11 09:22:12;;;;;;;;;8.67;6.00;;;;;-146.67;100.00;57155.34;5123901;28;8777;-92
2023/09/11 09:24:48;;;;;;;;;11.67;10.67;;;;;-146.67;100.00;57155.34;5122772;28;8911;-91
2023/09/11 09:27:13;;;;;;;;;9.00;8.00;;;;;-146.67;100.00;57155.34;5123221;28;9220;-92
2023/09/11 09:29:39;;;;;;;;;9.00;7.33;;;;;-146.67;100.00;57155.34;5104586;28;9235;-91
2023/09/11 09:32:06;;;;;;;;;12.67;11.00;;;;;-146.67;100.00;57155.34;5123560;28;8800;-93
2023/09/11 09:34:33;;;;;;;;;16.33;13.33;;;;;-146.67;100.00;57155.34;5104945;28;8759;-92
2023/09/11 09:36:59;;;;;;;;;12.67;11.67;;;;;-146.67;100.00;57155.34;5104925;28;10108;-92
2023/09/11 09:39:28;;;;;;;;;14.33;12.00;;;;;-146.67;100.00;57155.34;5123700;28;9206;-92
2023/09/11 09:42:01;;;;;;;;;13.00;11.00;;;;;-146.67;100.00;57155.34;5123100;28;9177;-92
2023/09/11 09:44:37;;;;;;;;;7.33;7.33;;;;;-146.67;100.00;57155.34;5122996;28;10248;-93
2023/09/11 09:47:10;;;;;;;;;14.00;11.67;;;;;-146.67;100.00;57155.34;5123549;28;10177;-93
2023/09/11 09:49:47;;;;;;;;;8.67;8.00;;;;;-146.67;100.00;57155.34;5123178;28;9044;-94
2023/09/11 09:52:14;;;;;;;;;11.67;10.33;;;;;-146.67;100.00;57155.34;5127314;27;9165;-94
2023/09/11 09:54:54;;;;;;;;;11.00;11.00;;;;;-146.67;100.00;57155.34;5124798;27;9173;-93
2023/09/11 09:57:22;;;;;;;;;12.67;12.00;;;;;-146.67;100.00;57155.34;5124552;27;10208;-93
2023/09/11 09:59:58;;;;;;;;;11.33;11.00;;;;;-146.67;100.00;57155.34;5143497;27;9259;-93
2023/09/11 10:02:30;;;;;;;;;9.33;9.33;;;;;-146.67;100.00;57155.34;5143695;27;9186;-93
2023/09/11 10:05:04;;;;;;;;;14.00;13.00;;;;;-146.67;100.00;57155.34;5143203;27;10077;-92
2023/09/11 10:07:44;;;;;;;;;8.67;8.67;;;;;-146.67;100.00;57155.34;5124991;27;10221;-93
2023/09/11 10:10:20;;;;;;;;;12.33;10.67;;;;;-146.67;100.00;57155.34;5143935;27;9281;-92
2023/09/11 10:12:45;;;;;;;;;13.00;10.00;;;;;-146.67;100.00;57155.34;5134866;27;9296;-91
2023/09/11 10:15:12;;;;;;;;;10.00;8.00;;;;;-146.67;100.00;57155.34;5122839;28;9091;-91
2023/09/11 10:17:38;;;;;;;;;11.00;10.33;;;;;-146.67;100.00;57155.34;5121439;28;10134;-92
2023/09/11 10:20:06;;;;;;;;;15.00;12.67;;;;;-146.67;100.00;57155.34;5122681;28;9082;-93
2023/09/11 10:22:32;;;;;;;;;8.00;8.00;;;;;-146.67;100.00;57155.34;5121562;28;9079;-93
2023/09/11 10:24:57;;;;;;;;;9.33;7.33;;;;;-146.67;100.00;57155.34;5122550;28;9022;-90
2023/09/11 10:27:22;;;;;;;;;8.67;7.00;;;;;-146.67;100.00;57155.34;5130058;27;8814;-92
2023/09/11 10:29:53;;;;;;;;;8.67;7.00;;;;;-146.67;100.00;57155.34;5137149;27;8809;-92
2023/09/11 10:32:24;;;;;;;;;12.00;9.00;;;;;-146.67;100.00;57155.34;5126185;28;8787;-93
2023/09/11 10:34:51;;;;;;;;;7.33;7.33;;;;;-146.67;100.00;57155.34;5126324;28;9168;-92
2023/09/11 10:37:21;;;;;;;;;14.67;9.00;;;;;-146.67;100.00;57155.34;5126280;28;9333;-92
2023/09/11 10:39:49;;;;;;;;;6.00;6.00;;;;;-146.67;100.00;57155.34;5126408;28;9004;-94
2023/09/11 10:42:15;;;;;;;;;7.00;6.00;;;;;-146.67;100.00;57155.34;5125501;28;9129;-92
2023/09/11 10:44:41;;;;;;;;;5.33;5.00;;;;;-146.67;100.00;57155.34;5126387;28;9070;-93
2023/09/11 10:47:07;;;;;;;;;9.67;7.00;;;;;-146.67;100.00;57155.34;5125822;28;9341;-93
2023/09/11 10:49:36;;;;;;;;;7.67;7.00;;;;;-146.67;100.00;57155.34;5108022;28;9057;-90
2023/09/11 10:52:04;;;;;;;;;5.33;5.33;;;;;-146.67;100.00;57155.34;5125840;28;11393;-92
2023/09/11 10:54:30;;;;;;;;;7.33;6.00;;;;;-146.67;100.00;57155.34;5139680;27;9004;-91
2023/09/11 10:56:56;;;;;;;;;6.00;6.00;;;;;-146.67;100.00;57155.34;5145890;27;9302;-92
2023/09/11 10:59:23;;;;;;;;;6.67;6.67;;;;;-146.67;100.00;57155.34;5128929;27;8765;-93